createdAt,value
2023-03-06T00:04:29.270Z,-0.02
2023-03-06T00:09:31.318Z,0.00
2023-03-06T00:14:33.349Z,0.03
2023-03-06T00:19:35.365Z,0.09
2023-03-06T00:24:37.410Z,0.01
2023-03-06T00:29:39.402Z,0.04
2023-03-06T00:34:41.476Z,-0.03
2023-03-06T00:39:43.497Z,-0.04
2023-03-06T00:44:46.313Z,-0.02
2023-03-06T00:49:48.378Z,0.01
2023-03-06T00:54:50.534Z,0.00
2023-03-06T00:59:52.586Z,0.02
2023-03-06T01:04:56.160Z,-0.03
2023-03-06T01:09:58.199Z,-0.03
2023-03-06T01:15:00.307Z,-0.01
2023-03-06T01:20:06.225Z,0.05
2023-03-06T01:25:09.330Z,0.11
2023-03-06T01:30:12.075Z,0.07
2023-03-06T01:35:14.363Z,0.11
2023-03-06T01:40:16.607Z,0.14
2023-03-06T01:45:19.524Z,0.14
2023-03-06T01:50:21.851Z,0.11
2023-03-06T01:55:30.307Z,0.12
2023-03-06T02:00:32.384Z,0.08
2023-03-06T02:05:35.058Z,-0.13
2023-03-06T02:10:37.170Z,-0.19
2023-03-06T02:15:39.291Z,-0.19
2023-03-06T02:20:48.866Z,-0.15
2023-03-06T02:25:52.948Z,-0.20
2023-03-06T02:30:56.928Z,-0.20
2023-03-06T02:36:05.080Z,-0.17
2023-03-06T02:41:08.876Z,-0.22
2023-03-06T02:46:11.433Z,-0.27
2023-03-06T02:51:13.553Z,-0.20
2023-03-06T02:56:15.697Z,-0.35
2023-03-06T03:01:18.428Z,-0.39
2023-03-06T03:06:20.743Z,-0.43
2023-03-06T03:11:23.329Z,-0.42
2023-03-06T03:16:25.434Z,-0.48
2023-03-06T03:21:27.852Z,-0.56
2023-03-06T03:26:30.910Z,-0.54
2023-03-06T03:31:42.125Z,-0.47
2023-03-06T03:36:45.355Z,-0.51
2023-03-06T03:41:48.741Z,-0.44
2023-03-06T03:46:51.613Z,-0.45
2023-03-06T03:51:57.137Z,-0.48
2023-03-06T03:57:01.964Z,-0.45
2023-03-06T04:02:08.729Z,-0.45
2023-03-06T04:07:18.802Z,-0.56
2023-03-06T04:12:21.216Z,-0.62
2023-03-06T04:17:23.482Z,-0.70
2023-03-06T04:22:27.320Z,-0.72
2023-03-06T04:27:29.559Z,-0.70
2023-03-06T04:32:31.967Z,-0.72
2023-03-06T04:37:35.020Z,-0.66
2023-03-06T04:42:37.407Z,-0.59
2023-03-06T04:47:40.053Z,-0.49
2023-03-06T04:52:42.133Z,-0.44
2023-03-06T04:57:46.625Z,-0.29
2023-03-06T05:02:50.229Z,-0.32
2023-03-06T05:07:53.382Z,-0.35
2023-03-06T05:12:55.419Z,-0.35
2023-03-06T05:17:57.433Z,-0.31
2023-03-06T05:22:59.601Z,-0.18
2023-03-06T05:28:01.746Z,-0.11
2023-03-06T05:33:04.041Z,0.00
2023-03-06T05:38:06.107Z,0.16
2023-03-06T05:43:08.560Z,0.47
2023-03-06T05:48:12.941Z,0.56
2023-03-06T05:53:14.969Z,0.58
2023-03-06T05:58:17.007Z,0.46
2023-03-06T06:03:20.122Z,0.56
2023-03-06T06:08:22.348Z,0.62
2023-03-06T06:13:24.480Z,0.61
2023-03-06T06:18:26.686Z,0.81
2023-03-06T06:23:28.782Z,1.02
2023-03-06T06:28:31.194Z,1.05
2023-03-06T06:33:33.199Z,0.99
2023-03-06T06:38:35.271Z,1.20
2023-03-06T06:43:37.368Z,1.40
2023-03-06T06:48:39.498Z,1.56
2023-03-06T06:53:41.702Z,1.84
2023-03-06T06:58:43.821Z,2.01
2023-03-06T07:03:45.921Z,2.02
2023-03-06T07:08:47.954Z,2.13
2023-03-06T07:13:49.984Z,1.85
2023-03-06T07:18:52.047Z,2.03
2023-03-06T07:23:55.355Z,2.24
2023-03-06T07:28:57.426Z,2.86
2023-03-06T07:33:59.593Z,3.08
2023-03-06T07:39:01.893Z,2.96
2023-03-06T07:44:04.037Z,2.87
2023-03-06T07:49:06.211Z,3.07
2023-03-06T07:54:08.576Z,3.05
2023-03-06T07:59:12.051Z,3.35
2023-03-06T08:04:14.246Z,3.38
2023-03-06T08:09:16.416Z,3.31
2023-03-06T08:14:18.457Z,3.50
2023-03-06T08:19:20.668Z,4.82
2023-03-06T08:24:22.865Z,8.61
2023-03-06T08:29:24.848Z,11.47
2023-03-06T08:34:27.034Z,9.87
2023-03-06T08:39:28.888Z,9.84
2023-03-06T08:44:31.043Z,9.11
2023-03-06T08:49:33.278Z,9.12
2023-03-06T08:54:35.993Z,9.25
2023-03-06T08:59:38.192Z,8.07
2023-03-06T09:04:40.423Z,7.05
2023-03-06T09:09:42.820Z,6.38
2023-03-06T09:14:45.013Z,6.32
2023-03-06T09:19:47.172Z,6.56
2023-03-06T09:24:50.805Z,7.19
2023-03-06T09:29:52.787Z,7.53
2023-03-06T09:34:54.640Z,9.14
2023-03-06T09:39:57.853Z,10.06
2023-03-06T09:45:02.374Z,11.79
2023-03-06T09:50:22.316Z,14.08
2023-03-06T09:55:31.352Z,15.26
2023-03-06T10:00:48.589Z,13.70
2023-03-06T10:05:57.479Z,12.70
2023-03-06T10:11:04.387Z,11.94
2023-03-06T10:16:28.004Z,13.18
2023-03-06T10:22:19.549Z,13.91
2023-03-06T10:27:34.799Z,14.09
2023-03-06T10:32:49.774Z,13.46
2023-03-06T10:38:05.449Z,13.90
2023-03-06T10:43:12.478Z,13.15
2023-03-06T10:48:20.079Z,11.00
2023-03-06T10:53:31.196Z,8.46
2023-03-06T10:58:33.273Z,6.56
2023-03-06T11:03:36.773Z,5.57
2023-03-06T11:08:40.710Z,4.64
2023-03-06T11:13:44.648Z,4.49
2023-03-06T11:19:07.214Z,5.18
2023-03-06T11:24:20.169Z,6.60
2023-03-06T11:29:22.078Z,9.17
2023-03-06T11:34:54.362Z,11.37
2023-03-06T11:40:11.216Z,12.28
2023-03-06T11:45:29.200Z,11.54
2023-03-06T11:50:39.252Z,11.52
2023-03-06T11:55:53.415Z,11.89
2023-03-06T12:01:22.412Z,11.17
2023-03-06T12:06:58.544Z,10.59
2023-03-06T12:12:37.758Z,10.02
2023-03-06T12:17:56.469Z,8.75
2023-03-06T12:23:26.236Z,8.21
2023-03-06T12:28:57.148Z,7.35
2023-03-06T12:34:14.368Z,6.81
2023-03-06T12:39:43.027Z,7.84
2023-03-06T12:44:47.885Z,9.13
2023-03-06T12:49:56.823Z,10.31
2023-03-06T12:55:01.457Z,10.21
2023-03-06T13:00:03.959Z,9.55
2023-03-06T13:05:25.978Z,9.84
2023-03-06T13:10:30.705Z,10.37
2023-03-06T13:15:35.470Z,10.66
2023-03-06T13:20:37.979Z,11.04
2023-03-06T13:25:49.067Z,11.36
2023-03-06T13:30:52.976Z,10.20
2023-03-06T13:35:57.334Z,9.56
2023-03-06T13:41:20.855Z,9.60
2023-03-06T13:46:35.390Z,8.90
2023-03-06T13:51:54.103Z,7.77
2023-03-06T13:57:23.652Z,7.33
2023-03-06T14:02:56.667Z,7.38
2023-03-06T14:08:11.083Z,6.55
2023-03-06T14:13:45.464Z,5.75
2023-03-06T14:18:51.594Z,4.79
2023-03-06T14:24:02.461Z,3.89
2023-03-06T14:29:04.502Z,3.27
2023-03-06T14:34:21.092Z,2.99
2023-03-06T14:39:34.589Z,2.67
2023-03-06T14:44:36.612Z,2.39
2023-03-06T14:49:38.625Z,2.38
2023-03-06T14:54:44.989Z,2.43
2023-03-06T14:59:58.414Z,2.21
2023-03-06T15:05:17.380Z,2.07
2023-03-06T15:10:31.040Z,1.92
2023-03-06T15:15:33.154Z,1.62
2023-03-06T15:20:44.613Z,1.45
2023-03-06T15:26:01.328Z,1.46
2023-03-06T15:31:21.179Z,1.30
2023-03-06T15:36:29.745Z,1.23
2023-03-06T15:41:35.744Z,0.90
2023-03-06T15:46:39.183Z,0.63
2023-03-06T15:51:41.254Z,0.50
2023-03-06T15:56:46.252Z,0.47
2023-03-06T16:01:48.972Z,0.38
2023-03-06T16:06:50.996Z,0.16
2023-03-06T16:11:53.101Z,0.30
2023-03-06T16:16:55.469Z,0.31
2023-03-06T16:21:57.545Z,0.18
2023-03-06T16:27:01.643Z,0.10
2023-03-06T16:32:04.609Z,0.00
2023-03-06T16:37:09.553Z,-0.01
2023-03-06T16:42:11.622Z,-0.10
2023-03-06T16:47:13.666Z,-0.22
2023-03-06T16:52:16.411Z,-0.21
2023-03-06T16:57:18.509Z,-0.22
2023-03-06T17:02:20.637Z,-0.41
2023-03-06T17:07:22.809Z,-0.33
2023-03-06T17:12:24.900Z,-0.35
2023-03-06T17:17:27.141Z,-0.39
2023-03-06T17:22:29.305Z,-0.42
2023-03-06T17:27:31.352Z,-0.47
2023-03-06T17:32:33.746Z,-0.52
2023-03-06T17:37:36.122Z,-0.58
2023-03-06T17:42:38.332Z,-0.53
2023-03-06T17:47:40.373Z,-0.49
2023-03-06T17:52:42.422Z,-0.55
2023-03-06T17:57:44.527Z,-0.58
2023-03-06T18:02:47.031Z,-0.62
2023-03-06T18:07:49.125Z,-0.65
2023-03-06T18:12:51.438Z,-0.72
2023-03-06T18:17:53.466Z,-0.74
2023-03-06T18:22:55.587Z,-0.78
2023-03-06T18:27:58.131Z,-0.82
2023-03-06T18:33:00.292Z,-0.82
2023-03-06T18:38:03.091Z,-0.87
2023-03-06T18:43:05.180Z,-0.90
2023-03-06T18:48:07.311Z,-0.95
2023-03-06T18:53:09.315Z,-0.92
2023-03-06T18:58:11.329Z,-0.84
2023-03-06T19:03:14.601Z,-0.82
2023-03-06T19:08:17.894Z,-0.73
2023-03-06T19:13:20.030Z,-0.65
2023-03-06T19:18:22.125Z,-0.63
2023-03-06T19:23:24.365Z,-0.63
2023-03-06T19:28:27.884Z,-0.60
2023-03-06T19:33:30.013Z,-0.65
2023-03-06T19:38:32.170Z,-0.48
2023-03-06T19:43:34.266Z,-0.39
2023-03-06T19:48:36.304Z,-0.33
2023-03-06T19:53:39.934Z,-0.50
2023-03-06T19:58:42.705Z,-0.80
2023-03-06T20:03:44.932Z,-0.92
2023-03-06T20:08:47.687Z,-0.97
2023-03-06T20:13:49.901Z,-1.06
2023-03-06T20:18:52.001Z,-1.13
2023-03-06T20:23:57.023Z,-1.19
2023-03-06T20:28:59.375Z,-1.14
2023-03-06T20:34:02.345Z,-1.23
2023-03-06T20:39:07.798Z,-1.13
2023-03-06T20:44:16.515Z,-1.03
2023-03-06T20:49:19.383Z,-1.04
2023-03-06T20:54:21.480Z,-1.10
2023-03-06T20:59:24.025Z,-1.15
2023-03-06T21:04:26.166Z,-1.31
2023-03-06T21:09:28.425Z,-1.32
2023-03-06T21:14:30.663Z,-1.39
2023-03-06T21:19:32.730Z,-1.13
2023-03-06T21:24:36.078Z,-1.02
2023-03-06T21:29:38.237Z,-1.01
2023-03-06T21:34:40.426Z,-1.11
2023-03-06T21:39:42.470Z,-1.11
2023-03-06T21:44:44.772Z,-1.01
2023-03-06T21:49:49.541Z,-0.87
2023-03-06T21:54:51.677Z,-0.83
2023-03-06T21:59:53.883Z,-0.95
2023-03-06T22:04:55.917Z,-0.98
2023-03-06T22:09:57.986Z,-0.99
2023-03-06T22:15:00.239Z,-0.92
2023-03-06T22:20:02.833Z,-0.94
2023-03-06T22:25:06.036Z,-0.94
2023-03-06T22:30:09.047Z,-0.89
2023-03-06T22:35:11.152Z,-0.81
2023-03-06T22:40:13.380Z,-0.81
2023-03-06T22:45:15.484Z,-0.84
2023-03-06T22:50:18.456Z,-0.81
2023-03-06T22:55:20.514Z,-0.83
2023-03-06T23:00:22.644Z,-0.71
2023-03-06T23:05:24.737Z,-0.68
2023-03-06T23:10:26.809Z,-0.70
2023-03-06T23:15:47.721Z,-0.67
2023-03-06T23:21:14.175Z,-0.66
2023-03-06T23:26:35.562Z,-0.70
2023-03-06T23:31:37.623Z,-0.70
2023-03-06T23:36:39.730Z,-0.68
2023-03-06T23:41:41.727Z,-0.71
2023-03-06T23:46:43.829Z,-0.71
2023-03-06T23:51:45.836Z,-0.67
2023-03-06T23:56:47.830Z,-0.66
